Date,TemperatureHighF,TemperatureAvgF,TemperatureLowF,DewpointHighF,DewpointAvgF,DewpointLowF,HumidityHigh,HumidityAvg,HumidityLow,PressureMaxIn,PressureMinIn,WindSpeedMaxMPH,WindSpeedAvgMPH,GustSpeedMaxMPH,PrecipitationSumIn
2012-12-1,74.1,10.9,-90.0,32.8,-63.9,-99.9,22,3,1,30.26,30.19,2,-440,6,0.00
2012-12-2,76.8,20.4,-90.0,60.8,-42.0,-99.9,59,15,3,30.29,30.20,1,-450,5,0.00
2012-12-3,76.9,9.9,-90.0,24.0,-63.8,-99.9,14,3,2,30.25,30.16,1,-478,6,0.00
2012-12-4,76.6,4.8,-90.0,10.5,-70.4,-99.9,8,1,2,30.25,30.15,0,-465,6,0.09
2012-12-5,-200.0,0.0,200.0,-99.9,-99.9,-99.9,0,0,100,30.17,30.03,0,-999,6,0.00
2012-12-6,74.4,21.4,-90.0,56.5,-47.1,-99.9,55,11,1,30.04,29.95,5,-446,6,0.02
2012-12-7,76.9,18.6,-29.7,8.1,-71.0,-99.9,7,1,1,29.98,29.90,2,-513,6,0.00
2012-12-8,-200.0,0.0,200.0,-99.9,-99.9,-99.9,0,0,100,30.01,29.91,0,-999,6,0.00
2012-12-9,75.1,9.4,-7.7,4.5,-84.1,-99.9,7,1,5,30.05,29.93,0,-541,6,0.00
2012-12-10,-6.1,-4.5,-16.4,-59.2,-99.1,-99.9,7,0,6,29.97,29.79,5,-603,6,0.00
2012-12-11,-200.0,0.0,200.0,-99.9,-99.9,-99.9,0,0,100,30.17,29.96,0,-999,6,0.00
2012-12-12,60.0,27.6,40.6,40.6,-26.9,-99.9,70,30,36,30.29,30.13,2,-456,6,0.00
2012-12-13,64.4,28.7,40.0,49.5,-27.6,-99.9,69,29,18,30.35,30.24,2,-466,6,0.00
2012-12-14,63.3,29.0,-56.8,50.3,-33.6,-99.9,64,19,12,30.31,30.12,3,-457,6,0.00
2012-12-15,71.7,21.4,-48.4,41.5,-54.9,-99.9,34,6,7,30.11,29.98,2,-517,6,0.00
2012-12-16,72.1,-8.5,-39.2,-0.8,-91.2,-99.9,7,1,3,29.99,29.84,1,-517,4,0.01
2012-12-17,-200.0,0.0,200.0,-99.9,-99.9,-99.9,0,0,100,29.89,29.76,0,-999,4,0.00
2012-12-18,66.5,28.2,-44.4,53.0,-33.8,-99.9,62,20,9,30.04,29.89,1,-444,4,0.01
2012-12-19,73.4,27.1,-43.2,51.2,-50.9,-99.9,47,8,1,30.06,29.90,1,-465,4,0.00
2012-12-20,64.4,22.8,-19.6,50.1,-42.3,-99.9,62,22,41,30.25,29.84,5,-554,9,0.00
2012-12-21,58.1,27.3,39.7,31.9,-30.6,-99.9,65,23,30,30.38,30.24,2,-460,5,0.00
2012-12-22,57.5,27.7,37.9,42.2,-30.8,-99.9,66,24,12,30.42,30.24,1,-454,4,0.01
2012-12-23,-200.0,0.0,200.0,-99.9,-99.9,-99.9,0,0,100,30.23,29.99,0,-999,4,0.00
2012-12-24,-200.0,0.0,200.0,-99.9,-99.9,-99.9,0,0,100,29.99,29.86,0,-999,4,0.00
2012-12-25,70.5,0.2,-20.5,28.8,-88.2,-99.9,31,2,9,29.88,29.56,8,-600,9,0.02
2012-12-26,53.7,24.8,40.5,41.8,-29.3,-99.9,68,32,45,30.16,29.71,3,-474,7,0.01
2012-12-27,48.4,19.5,40.7,37.4,-45.0,-99.9,66,22,22,30.20,30.04,3,-562,4,0.00
2012-12-28,-200.0,0.0,200.0,-99.9,-99.9,-99.9,0,0,100,30.05,29.71,0,-999,4,0.00
2012-12-29,-200.0,0.0,200.0,-99.9,-99.9,-99.9,0,0,100,30.39,29.87,0,-999,4,0.00
2012-12-30,53.5,23.9,33.6,37.5,-31.8,-99.9,68,28,28,30.51,30.35,2,-468,4,0.01
2012-12-31,-200.0,0.0,200.0,-99.9,-99.9,-99.9,0,0,100,30.35,30.08,0,-999,4,0.00